createdAt,value
2019-05-11T00:00:49.301Z,0
2019-05-11T00:02:01.000Z,0
2019-05-11T00:03:12.000Z,0
2019-05-11T00:04:24.000Z,0
2019-05-11T00:05:37.000Z,0
2019-05-11T00:06:49.000Z,0
2019-05-11T00:09:13.000Z,0
2019-05-11T00:10:25.000Z,0
2019-05-11T00:11:38.000Z,0
2019-05-11T00:12:51.000Z,0
2019-05-11T00:14:02.000Z,0
2019-05-11T00:15:15.709Z,0
2019-05-11T00:16:27.920Z,0
2019-05-11T00:17:39.000Z,0
2019-05-11T00:18:57.000Z,0
2019-05-11T00:20:03.000Z,0
2019-05-11T00:21:15.000Z,0
2019-05-11T00:22:27.000Z,0
2019-05-11T00:23:40.000Z,0
2019-05-11T00:24:52.000Z,0
2019-05-11T00:26:04.000Z,0
2019-05-11T00:27:17.715Z,0
2019-05-11T00:28:28.000Z,0
2019-05-11T00:29:41.000Z,0
2019-05-11T00:30:53.000Z,0
2019-05-11T00:32:05.000Z,0
2019-05-11T00:33:17.000Z,0
2019-05-11T00:34:29.000Z,0
2019-05-11T00:35:42.000Z,0
2019-05-11T00:36:54.000Z,0
2019-05-11T00:38:06.000Z,0
2019-05-11T00:39:18.000Z,0
2019-05-11T00:40:31.000Z,0
2019-05-11T00:41:43.000Z,0
2019-05-11T00:42:55.000Z,0
2019-05-11T00:44:07.000Z,0
2019-05-11T00:45:20.000Z,0
2019-05-11T00:46:31.000Z,0
2019-05-11T00:47:44.000Z,0
2019-05-11T00:48:56.000Z,0
2019-05-11T00:51:20.000Z,0
2019-05-11T00:52:32.000Z,0
2019-05-11T00:53:45.000Z,0
2019-05-11T00:54:57.000Z,0
2019-05-11T00:56:09.000Z,0
2019-05-11T00:57:21.000Z,0
2019-05-11T00:58:33.000Z,0
2019-05-11T00:59:46.000Z,0
2019-05-11T01:00:59.361Z,0
2019-05-11T01:02:10.000Z,0
2019-05-11T01:03:22.000Z,0
2019-05-11T01:04:35.984Z,0
2019-05-11T01:05:48.018Z,0
2019-05-11T01:07:00.387Z,0
2019-05-11T01:08:12.582Z,0
2019-05-11T01:09:24.867Z,0
2019-05-11T01:10:37.019Z,0
2019-05-11T01:15:25.801Z,0
2019-05-11T01:17:50.202Z,0
2019-05-11T01:20:14.614Z,0
2019-05-11T01:22:39.024Z,0
2019-05-11T01:25:03.430Z,0
2019-05-11T01:26:15.638Z,0
2019-05-11T01:28:40.000Z,0
2019-05-11T01:33:28.927Z,0
2019-05-11T01:38:17.697Z,0
2019-05-11T01:41:54.326Z,0
2019-05-11T01:43:05.000Z,0
2019-05-11T01:44:17.000Z,0
2019-05-11T01:45:30.000Z,0
2019-05-11T01:46:42.000Z,0
2019-05-11T01:47:55.366Z,0
2019-05-11T01:49:06.000Z,0
2019-05-11T01:50:18.000Z,0
2019-05-11T01:51:30.000Z,0
2019-05-11T01:52:44.183Z,0
2019-05-11T01:53:55.000Z,0
2019-05-11T01:55:07.000Z,0
2019-05-11T01:56:19.000Z,0
2019-05-11T01:57:33.026Z,0
2019-05-11T01:58:44.000Z,0
2019-05-11T01:59:56.000Z,0
2019-05-11T02:01:08.000Z,0
2019-05-11T02:02:20.000Z,0
2019-05-11T02:03:33.000Z,0
2019-05-11T02:04:46.246Z,0
2019-05-11T02:05:57.000Z,0
2019-05-11T02:07:09.000Z,0
2019-05-11T02:08:21.000Z,0
2019-05-11T02:09:34.000Z,0
2019-05-11T02:10:46.000Z,0
2019-05-11T02:11:59.000Z,0
2019-05-11T02:13:16.000Z,0
2019-05-11T02:15:35.000Z,0
2019-05-11T02:16:47.000Z,0
2019-05-11T02:17:59.000Z,0
2019-05-11T02:19:11.000Z,0
2019-05-11T02:20:23.000Z,0
2019-05-11T02:21:36.000Z,0
2019-05-11T02:22:48.000Z,0
2019-05-11T02:24:00.000Z,0
2019-05-11T02:25:12.000Z,0
2019-05-11T02:26:24.000Z,0
2019-05-11T02:27:37.000Z,0
2019-05-11T02:28:49.000Z,0
2019-05-11T02:30:02.000Z,0
2019-05-11T02:31:13.000Z,0
2019-05-11T02:32:25.000Z,0
2019-05-11T02:33:38.000Z,0
2019-05-11T02:34:50.000Z,0
2019-05-11T02:36:02.000Z,0
2019-05-11T02:37:14.000Z,0
2019-05-11T02:38:26.000Z,0
2019-05-11T02:39:39.000Z,0
2019-05-11T02:40:51.000Z,0
2019-05-11T02:42:04.059Z,4
2019-05-11T02:43:15.000Z,4
2019-05-11T02:44:27.000Z,4
2019-05-11T02:45:40.000Z,0
2019-05-11T02:46:52.000Z,4
2019-05-11T02:48:05.000Z,4
2019-05-11T02:49:17.826Z,4
2019-05-11T02:50:28.000Z,8
2019-05-11T02:51:41.000Z,4
2019-05-11T02:52:53.000Z,4
2019-05-11T02:54:06.622Z,8
2019-05-11T02:55:18.820Z,8
2019-05-11T02:56:29.000Z,12
2019-05-11T02:57:43.222Z,16
2019-05-11T02:58:54.000Z,16
2019-05-11T03:00:06.000Z,20
2019-05-11T03:01:18.000Z,24
2019-05-11T03:02:31.000Z,28
2019-05-11T03:03:43.000Z,28
2019-05-11T03:04:55.000Z,32
2019-05-11T03:06:07.000Z,36
2019-05-11T03:07:19.000Z,40
2019-05-11T03:08:32.000Z,48
2019-05-11T03:09:44.000Z,56
2019-05-11T03:10:57.000Z,64
2019-05-11T03:13:20.000Z,80
2019-05-11T03:14:33.000Z,88
2019-05-11T03:15:45.000Z,100
2019-05-11T03:16:57.000Z,112
2019-05-11T03:18:09.000Z,124
2019-05-11T03:19:21.000Z,140
2019-05-11T03:20:34.000Z,148
2019-05-11T03:21:46.000Z,164
2019-05-11T03:22:58.000Z,180
2019-05-11T03:24:10.000Z,200
2019-05-11T03:25:22.000Z,220
2019-05-11T03:26:35.000Z,240
2019-05-11T03:27:47.000Z,264
2019-05-11T03:28:59.000Z,292
2019-05-11T03:30:11.000Z,308
2019-05-11T03:31:23.000Z,320
2019-05-11T03:32:42.000Z,336
2019-05-11T03:33:48.000Z,352
2019-05-11T03:35:00.000Z,364
2019-05-11T03:36:12.000Z,376
2019-05-11T03:37:24.000Z,392
2019-05-11T03:38:37.000Z,416
2019-05-11T03:39:50.460Z,452
2019-05-11T03:41:01.000Z,484
2019-05-11T03:42:14.000Z,520
2019-05-11T03:43:25.000Z,540
2019-05-11T03:44:38.000Z,540
2019-05-11T03:45:50.000Z,528
2019-05-11T03:47:06.000Z,484
2019-05-11T03:48:14.000Z,428
2019-05-11T03:49:27.000Z,412
2019-05-11T03:50:39.000Z,404
2019-05-11T03:51:51.000Z,396
2019-05-11T03:53:03.000Z,392
2019-05-11T03:54:15.000Z,396
2019-05-11T03:55:28.000Z,392
2019-05-11T03:56:40.000Z,400
2019-05-11T03:57:52.000Z,380
2019-05-11T03:59:04.000Z,376
2019-05-11T04:00:16.000Z,384
2019-05-11T04:01:29.000Z,408
2019-05-11T04:02:41.000Z,428
2019-05-11T04:03:53.000Z,444
2019-05-11T04:05:05.000Z,464
2019-05-11T04:06:17.000Z,484
2019-05-11T04:07:30.000Z,508
2019-05-11T04:08:43.301Z,540
2019-05-11T04:09:54.000Z,584
2019-05-11T04:11:06.000Z,640
2019-05-11T04:12:18.000Z,696
2019-05-11T04:13:31.000Z,748
2019-05-11T04:14:43.000Z,812
2019-05-11T04:15:56.000Z,888
2019-05-11T04:17:07.000Z,972
2019-05-11T04:18:19.000Z,1080
2019-05-11T04:19:33.000Z,1168
2019-05-11T04:20:44.000Z,1240
2019-05-11T04:21:56.000Z,1292
2019-05-11T04:23:09.000Z,1348
2019-05-11T04:24:20.000Z,1396
2019-05-11T04:25:36.000Z,1432
2019-05-11T04:26:46.000Z,1500
2019-05-11T04:28:01.000Z,1584
2019-05-11T04:29:21.000Z,1644
2019-05-11T04:30:21.000Z,1660
2019-05-11T04:31:35.000Z,1776
2019-05-11T04:32:46.000Z,1904
2019-05-11T04:33:59.051Z,1952
2019-05-11T04:35:11.000Z,1928
2019-05-11T04:36:22.000Z,1884
2019-05-11T04:37:35.000Z,1856
2019-05-11T04:38:47.000Z,1880
2019-05-11T04:40:00.000Z,1800
2019-05-11T04:41:11.000Z,1668
2019-05-11T04:42:23.000Z,1560
2019-05-11T04:43:37.274Z,1468
2019-05-11T04:44:49.028Z,1396
2019-05-11T04:46:00.000Z,1356
2019-05-11T04:47:13.684Z,1344
2019-05-11T04:48:25.000Z,1364
2019-05-11T04:49:37.000Z,1424
2019-05-11T04:50:50.000Z,1524
2019-05-11T04:52:02.000Z,1640
2019-05-11T04:53:13.000Z,1764
2019-05-11T04:54:29.000Z,1876
2019-05-11T04:55:38.000Z,1904
2019-05-11T04:56:50.000Z,1912
2019-05-11T04:58:03.000Z,1908
2019-05-11T04:59:14.000Z,1972
2019-05-11T05:01:39.000Z,1984
2019-05-11T05:02:51.000Z,1984
2019-05-11T05:04:03.000Z,2052
2019-05-11T05:05:15.000Z,2224
2019-05-11T05:06:27.000Z,2472
2019-05-11T05:07:40.000Z,2716
2019-05-11T05:08:52.000Z,2924
2019-05-11T05:10:04.000Z,3072
2019-05-11T05:11:16.000Z,3144
2019-05-11T05:12:29.948Z,3240
2019-05-11T05:13:41.000Z,3336
2019-05-11T05:14:53.000Z,3396
2019-05-11T05:16:06.000Z,3416
2019-05-11T05:17:18.000Z,3448
2019-05-11T05:18:29.000Z,3544
2019-05-11T05:19:42.000Z,3640
2019-05-11T05:20:54.000Z,3688
2019-05-11T05:22:06.000Z,3712
2019-05-11T05:23:18.000Z,3628
2019-05-11T05:24:31.981Z,3584
2019-05-11T05:25:43.000Z,3588
2019-05-11T05:26:56.389Z,3584
2019-05-11T05:28:07.000Z,3552
2019-05-11T05:29:20.000Z,3532
2019-05-11T05:30:31.000Z,3524
2019-05-11T05:31:45.187Z,3508
2019-05-11T05:32:56.000Z,3508
2019-05-11T05:34:08.000Z,3532
2019-05-11T05:35:20.000Z,3520
2019-05-11T05:36:32.000Z,3596
2019-05-11T05:37:45.000Z,3600
2019-05-11T05:40:09.000Z,3584
2019-05-11T05:41:22.000Z,3564
2019-05-11T05:42:34.979Z,3592
2019-05-11T05:43:46.000Z,3656
2019-05-11T05:44:58.000Z,3708
2019-05-11T05:46:10.000Z,3648
2019-05-11T05:47:22.000Z,3552
2019-05-11T05:48:34.000Z,3532
2019-05-11T05:49:47.000Z,3424
2019-05-11T05:51:00.392Z,3336
2019-05-11T05:52:11.000Z,3240
2019-05-11T05:53:23.000Z,3208
2019-05-11T05:54:35.000Z,3308
2019-05-11T05:55:49.185Z,3468
2019-05-11T05:57:00.000Z,3632
2019-05-11T05:58:13.000Z,3808
2019-05-11T05:59:24.000Z,4008
2019-05-11T06:00:36.000Z,4204
2019-05-11T06:01:50.000Z,4360
2019-05-11T06:03:01.000Z,4448
2019-05-11T06:04:14.063Z,4436
2019-05-11T06:05:25.000Z,4388
2019-05-11T06:06:38.000Z,4344
2019-05-11T06:07:50.000Z,4376
2019-05-11T06:09:03.457Z,4392
2019-05-11T06:10:14.000Z,4392
2019-05-11T06:11:32.000Z,4416
2019-05-11T06:12:39.000Z,4440
2019-05-11T06:13:51.000Z,4424
2019-05-11T06:15:03.000Z,4368
2019-05-11T06:16:16.000Z,4316
2019-05-11T06:17:28.000Z,4252
2019-05-11T06:18:40.000Z,4140
2019-05-11T06:19:53.000Z,4012
2019-05-11T06:21:04.000Z,3904
2019-05-11T06:22:16.000Z,3868
2019-05-11T06:23:28.000Z,3832
2019-05-11T06:24:42.034Z,3912
2019-05-11T06:27:06.000Z,4096
2019-05-11T06:28:17.000Z,4180
2019-05-11T06:29:30.849Z,4236
2019-05-11T06:30:42.000Z,4276
2019-05-11T06:31:55.263Z,4340
2019-05-11T06:33:06.000Z,4336
2019-05-11T06:34:18.000Z,4328
2019-05-11T06:35:30.000Z,4284
2019-05-11T06:36:44.080Z,4276
2019-05-11T06:37:55.000Z,4232
2019-05-11T06:39:07.000Z,4164
2019-05-11T06:40:19.000Z,4228
2019-05-11T06:41:31.000Z,4228
2019-05-11T06:42:44.000Z,4244
2019-05-11T06:43:56.000Z,4236
2019-05-11T06:45:18.000Z,4232
2019-05-11T06:46:21.763Z,4216
2019-05-11T06:47:33.960Z,4212
2019-05-11T06:48:46.000Z,4220
2019-05-11T06:49:57.000Z,4236
2019-05-11T06:51:09.000Z,4272
2019-05-11T06:52:21.000Z,4336
2019-05-11T06:53:33.000Z,4444
2019-05-11T06:55:58.000Z,4732
2019-05-11T06:57:10.000Z,4824
2019-05-11T06:58:22.000Z,4888
2019-05-11T06:59:36.057Z,4944
2019-05-11T07:00:48.268Z,4980
2019-05-11T07:01:59.000Z,5056
2019-05-11T07:03:11.000Z,5168
2019-05-11T07:04:27.000Z,5268
2019-05-11T07:06:49.000Z,5448
2019-05-11T07:08:01.000Z,5560
2019-05-11T07:09:13.726Z,5656
2019-05-11T07:10:24.000Z,5748
2019-05-11T07:11:37.000Z,5840
2019-05-11T07:12:50.031Z,5944
2019-05-11T07:14:02.515Z,6040
2019-05-11T07:15:14.725Z,6104
2019-05-11T07:16:25.000Z,6144
2019-05-11T07:17:38.000Z,6176
2019-05-11T07:18:51.000Z,6216
2019-05-11T07:20:03.000Z,6224
2019-05-11T07:21:14.000Z,6212
2019-05-11T07:22:26.000Z,6168
2019-05-11T07:23:40.180Z,6112
2019-05-11T07:24:52.380Z,6072
2019-05-11T07:26:03.000Z,5976
2019-05-11T07:27:16.793Z,5876
2019-05-11T07:28:27.000Z,5748
2019-05-11T07:29:40.000Z,5636
2019-05-11T07:30:53.000Z,5528
2019-05-11T07:34:28.000Z,5284
2019-05-11T07:35:41.000Z,5236
2019-05-11T07:36:53.000Z,5200
2019-05-11T07:38:05.000Z,5172
2019-05-11T07:39:17.000Z,5176
2019-05-11T07:41:42.000Z,5244
2019-05-11T07:42:54.000Z,5280
2019-05-11T07:44:06.000Z,5348
2019-05-11T07:45:19.000Z,5420
2019-05-11T07:47:43.000Z,5584
2019-05-11T07:48:55.000Z,5648
2019-05-11T07:50:08.606Z,5700
2019-05-11T07:51:19.000Z,5752
2019-05-11T07:52:33.212Z,5804
2019-05-11T07:53:44.000Z,5840
2019-05-11T07:54:56.000Z,5900
2019-05-11T07:56:09.000Z,6000
2019-05-11T07:57:21.000Z,6120
2019-05-11T07:58:33.980Z,6192
2019-05-11T07:59:46.000Z,6264
2019-05-11T08:00:57.000Z,6292
2019-05-11T08:02:09.000Z,6252
2019-05-11T08:03:21.000Z,6356
2019-05-11T08:04:33.000Z,6524
2019-05-11T08:06:59.035Z,6596
2019-05-11T08:08:11.554Z,6748
2019-05-11T08:09:23.750Z,7068
2019-05-11T08:10:34.000Z,7212
2019-05-11T08:11:47.000Z,7396
2019-05-11T08:13:00.335Z,7568
2019-05-11T08:15:23.000Z,7736
2019-05-11T08:16:36.000Z,7820
2019-05-11T08:17:48.000Z,7820
2019-05-11T08:19:01.000Z,7844
2019-05-11T08:20:12.000Z,7752
2019-05-11T08:21:24.000Z,7800
2019-05-11T08:22:36.000Z,7956
2019-05-11T08:23:49.000Z,8152
2019-05-11T08:25:01.000Z,8180
2019-05-11T08:27:25.000Z,7940
2019-05-11T08:28:37.000Z,7832
2019-05-11T08:29:50.000Z,7764
2019-05-11T08:31:03.235Z,7856
2019-05-11T08:32:14.000Z,7832
2019-05-11T08:33:29.000Z,7792
2019-05-11T08:35:51.000Z,7692
2019-05-11T08:37:03.000Z,7776
2019-05-11T08:38:15.000Z,7840
2019-05-11T08:40:39.000Z,7532
2019-05-11T08:41:52.000Z,7408
2019-05-11T08:44:16.000Z,7536
2019-05-11T08:45:29.627Z,7600
2019-05-11T08:46:40.000Z,7760
2019-05-11T08:47:53.000Z,7964
2019-05-11T08:49:05.000Z,8028
2019-05-11T08:50:18.446Z,8276
2019-05-11T08:51:29.000Z,8404
2019-05-11T08:52:41.000Z,8428
2019-05-11T08:53:54.000Z,8424
2019-05-11T08:56:19.000Z,8388
2019-05-11T08:57:30.000Z,8460
2019-05-11T08:59:55.000Z,8596
2019-05-11T09:01:08.025Z,8816
2019-05-11T09:02:19.000Z,8992
2019-05-11T09:03:32.651Z,9156
2019-05-11T09:05:56.000Z,9044
2019-05-11T09:07:08.000Z,7988
2019-05-11T09:08:20.000Z,7248
2019-05-11T09:09:32.000Z,7528
2019-05-11T09:10:45.886Z,7528
2019-05-11T09:11:58.083Z,7180
2019-05-11T09:13:10.000Z,6652
2019-05-11T09:14:22.494Z,6196
2019-05-11T09:15:34.000Z,5540
2019-05-11T09:16:45.000Z,5324
2019-05-11T09:17:58.000Z,5424
2019-05-11T09:19:11.304Z,5768
2019-05-11T09:20:22.000Z,5820
2019-05-11T09:21:34.000Z,6352
2019-05-11T09:22:47.000Z,6544
2019-05-11T09:24:00.125Z,6772
2019-05-11T09:25:11.000Z,7204
2019-05-11T09:26:23.000Z,7788
2019-05-11T09:28:47.000Z,9124
2019-05-11T09:30:00.000Z,9228
2019-05-11T09:32:24.000Z,9512
2019-05-11T09:33:36.000Z,9664
2019-05-11T09:34:49.000Z,9556
2019-05-11T09:37:13.000Z,9404
2019-05-11T09:38:26.000Z,9680
2019-05-11T09:39:38.802Z,10228
2019-05-11T09:40:49.000Z,10268
2019-05-11T09:42:02.000Z,10328
2019-05-11T09:43:14.000Z,10480
2019-05-11T09:44:26.000Z,10436
2019-05-11T09:45:38.000Z,10424
2019-05-11T09:46:50.000Z,10308
2019-05-11T09:48:03.000Z,10244
2019-05-11T09:49:15.000Z,10152
2019-05-11T09:50:28.599Z,9908
2019-05-11T09:51:39.000Z,9768
2019-05-11T09:52:51.000Z,9604
2019-05-11T09:54:05.171Z,9524
2019-05-11T09:55:17.000Z,9404
2019-05-11T09:56:28.000Z,9368
2019-05-11T09:57:40.000Z,9268
2019-05-11T09:58:52.000Z,9140
2019-05-11T10:00:06.163Z,9028
2019-05-11T10:01:18.362Z,8924
2019-05-11T10:02:29.000Z,8844
2019-05-11T10:03:41.000Z,8824
2019-05-11T10:04:54.000Z,8748
2019-05-11T10:06:07.162Z,8700
2019-05-11T10:07:18.000Z,8764
2019-05-11T10:08:30.000Z,8932
2019-05-11T10:09:42.000Z,9024
2019-05-11T10:12:07.000Z,8752
2019-05-11T10:13:20.398Z,8640
2019-05-11T10:14:31.000Z,8584
2019-05-11T10:16:55.000Z,8840
2019-05-11T10:18:08.000Z,9056
2019-05-11T10:19:20.000Z,9160
2019-05-11T10:20:32.000Z,9120
2019-05-11T10:21:44.000Z,9012
2019-05-11T10:22:56.000Z,8768
2019-05-11T10:24:10.000Z,8460
2019-05-11T10:26:34.589Z,8304
2019-05-11T10:27:46.787Z,8440
2019-05-11T10:28:57.000Z,8616
2019-05-11T10:30:11.161Z,8664
2019-05-11T10:32:34.000Z,8316
2019-05-11T10:33:47.000Z,8120
2019-05-11T10:34:59.917Z,8032
2019-05-11T10:36:11.000Z,8112
2019-05-11T10:37:23.000Z,8376
2019-05-11T10:39:47.000Z,8852
2019-05-11T10:41:00.913Z,9112
2019-05-11T10:43:25.000Z,9420
2019-05-11T10:44:36.000Z,9472
2019-05-11T10:45:48.000Z,9464
2019-05-11T10:47:00.000Z,9420
2019-05-11T10:48:13.000Z,9392
2019-05-11T10:49:25.000Z,9388
2019-05-11T10:50:38.522Z,9252
2019-05-11T10:51:49.000Z,9104
2019-05-11T10:53:01.000Z,8980
2019-05-11T10:54:15.000Z,8692
2019-05-11T10:55:26.000Z,8220
2019-05-11T10:56:39.530Z,7828
2019-05-11T10:57:50.000Z,7656
2019-05-11T10:59:02.000Z,7816
2019-05-11T11:00:15.000Z,8196
2019-05-11T11:01:27.000Z,8636
2019-05-11T11:02:39.000Z,8964
2019-05-11T11:03:52.000Z,9076
2019-05-11T11:05:03.000Z,9044
2019-05-11T11:06:16.000Z,8956
2019-05-11T11:07:28.000Z,8844
2019-05-11T11:08:40.000Z,8696
2019-05-11T11:09:54.039Z,8564
2019-05-11T11:11:05.967Z,8480
2019-05-11T11:12:18.000Z,8484
2019-05-11T11:13:30.378Z,8596
2019-05-11T11:14:42.000Z,8760
2019-05-11T11:15:54.000Z,8912
2019-05-11T11:17:05.000Z,8972
2019-05-11T11:18:18.000Z,8912
2019-05-11T11:19:30.000Z,8816
2019-05-11T11:20:42.000Z,8760
2019-05-11T11:21:54.000Z,8660
2019-05-11T11:23:06.000Z,8484
2019-05-11T11:24:19.000Z,8284
2019-05-11T11:26:44.573Z,8016
2019-05-11T11:27:55.000Z,7988
2019-05-11T11:29:08.000Z,8072
2019-05-11T11:30:20.000Z,8208
2019-05-11T11:31:32.000Z,8372
2019-05-11T11:32:45.572Z,8500
2019-05-11T11:33:57.775Z,8444
2019-05-11T11:36:21.000Z,8316
2019-05-11T11:37:33.000Z,8268
2019-05-11T11:38:46.000Z,8156
2019-05-11T11:39:58.000Z,7984
2019-05-11T11:41:10.000Z,7976
2019-05-11T11:42:22.000Z,8148
2019-05-11T11:43:35.358Z,8368
2019-05-11T11:44:47.000Z,8280
2019-05-11T11:45:59.000Z,7780
2019-05-11T11:47:10.000Z,7284
2019-05-11T11:48:24.176Z,7008
2019-05-11T11:49:36.000Z,6948
2019-05-11T11:50:47.000Z,6908
2019-05-11T11:51:59.000Z,6828
2019-05-11T11:53:17.000Z,6912
2019-05-11T11:54:24.000Z,7120
2019-05-11T11:55:37.042Z,7192
2019-05-11T11:56:48.000Z,7260
2019-05-11T11:58:00.000Z,7380
2019-05-11T11:59:14.035Z,7512
2019-05-11T12:00:26.232Z,7588
2019-05-11T12:01:38.447Z,7492
2019-05-11T12:02:49.000Z,7416
2019-05-11T12:04:02.856Z,7440
2019-05-11T12:05:15.064Z,7512
2019-05-11T12:06:26.000Z,7548
2019-05-11T12:07:38.000Z,7332
2019-05-11T12:08:51.000Z,6844
2019-05-11T12:10:02.000Z,6356
2019-05-11T12:11:15.000Z,6008
2019-05-11T12:12:27.000Z,5816
2019-05-11T12:13:39.000Z,5668
2019-05-11T12:14:51.000Z,5528
2019-05-11T12:16:04.000Z,5496
2019-05-11T12:17:16.000Z,5548
2019-05-11T12:18:28.000Z,5556
2019-05-11T12:19:41.000Z,5476
2019-05-11T12:20:52.000Z,5316
2019-05-11T12:22:05.970Z,5224
2019-05-11T12:23:17.000Z,5200
2019-05-11T12:24:29.000Z,5268
2019-05-11T12:25:41.000Z,5284
2019-05-11T12:26:54.807Z,5084
2019-05-11T12:28:07.012Z,4780
2019-05-11T12:29:19.000Z,4596
2019-05-11T12:30:31.000Z,4564
2019-05-11T12:31:42.000Z,4700
2019-05-11T12:32:55.846Z,4920
2019-05-11T12:34:07.000Z,5136
2019-05-11T12:35:19.000Z,5184
2019-05-11T12:36:32.000Z,5020
2019-05-11T12:37:43.000Z,4704
2019-05-11T12:38:56.000Z,4388
2019-05-11T12:40:08.000Z,4152
2019-05-11T12:41:20.000Z,4036
2019-05-11T12:42:33.000Z,4012
2019-05-11T12:43:44.000Z,4032
2019-05-11T12:44:57.936Z,4016
2019-05-11T12:46:09.000Z,3936
2019-05-11T12:47:22.000Z,3824
2019-05-11T12:48:33.000Z,3744
2019-05-11T12:49:45.000Z,3724
2019-05-11T12:50:57.000Z,3768
2019-05-11T12:52:10.000Z,3864
2019-05-11T12:53:22.000Z,3944
2019-05-11T12:54:34.000Z,3996
2019-05-11T12:55:46.000Z,3968
2019-05-11T12:56:59.000Z,3892
2019-05-11T12:58:12.000Z,3772
2019-05-11T12:59:24.000Z,3716
2019-05-11T13:00:36.000Z,3716
2019-05-11T13:01:55.000Z,3764
2019-05-11T13:03:02.000Z,3836
2019-05-11T13:04:12.000Z,3896
2019-05-11T13:05:24.000Z,3976
2019-05-11T13:06:36.000Z,4132
2019-05-11T13:07:49.937Z,4360
2019-05-11T13:09:01.000Z,4612
2019-05-11T13:10:13.000Z,4896
2019-05-11T13:12:38.775Z,5248
2019-05-11T13:13:50.000Z,5188
2019-05-11T13:15:02.000Z,5072
2019-05-11T13:16:15.000Z,5004
2019-05-11T13:17:27.614Z,5008
2019-05-11T13:18:38.000Z,5264
2019-05-11T13:19:52.003Z,5624
2019-05-11T13:21:03.000Z,5892
2019-05-11T13:22:15.000Z,5888
2019-05-11T13:23:27.000Z,5520
2019-05-11T13:24:40.000Z,4960
2019-05-11T13:25:52.000Z,4580
2019-05-11T13:27:04.000Z,4380
2019-05-11T13:28:17.000Z,4380
2019-05-11T13:29:29.000Z,4472
2019-05-11T13:30:41.000Z,4472
2019-05-11T13:31:53.000Z,4324
2019-05-11T13:33:06.000Z,4112
2019-05-11T13:34:17.000Z,3908
2019-05-11T13:35:29.000Z,3752
2019-05-11T13:36:41.000Z,3576
2019-05-11T13:37:54.000Z,3404
2019-05-11T13:39:07.424Z,3340
2019-05-11T13:40:19.000Z,3320
2019-05-11T13:41:30.000Z,3324
2019-05-11T13:42:43.000Z,3412
2019-05-11T13:43:55.000Z,3572
2019-05-11T13:45:07.000Z,3768
2019-05-11T13:46:19.000Z,3940
2019-05-11T13:47:32.000Z,4024
2019-05-11T13:48:45.107Z,3932
2019-05-11T13:49:56.000Z,3676
2019-05-11T13:51:08.000Z,3336
2019-05-11T13:52:21.738Z,3120
2019-05-11T13:53:32.000Z,3012
2019-05-11T13:54:45.000Z,3068
2019-05-11T13:55:58.000Z,3240
2019-05-11T13:57:09.000Z,3428
2019-05-11T13:58:22.823Z,3500
2019-05-11T13:59:34.993Z,3372
2019-05-11T14:00:46.000Z,3176
2019-05-11T14:01:59.000Z,3004
2019-05-11T14:03:11.000Z,2904
2019-05-11T14:04:23.000Z,2844
2019-05-11T14:05:35.000Z,2808
2019-05-11T14:06:47.000Z,2732
2019-05-11T14:08:00.000Z,2660
2019-05-11T14:09:11.000Z,2572
2019-05-11T14:10:23.000Z,2496
2019-05-11T14:11:37.164Z,2472
2019-05-11T14:12:48.000Z,2508
2019-05-11T14:14:01.000Z,2612
2019-05-11T14:15:13.000Z,2772
2019-05-11T14:16:25.949Z,2964
2019-05-11T14:17:44.000Z,3180
2019-05-11T14:18:49.000Z,3352
2019-05-11T14:20:02.000Z,3468
2019-05-11T14:21:14.000Z,3528
2019-05-11T14:22:26.000Z,3552
2019-05-11T14:23:38.000Z,3544
2019-05-11T14:24:50.000Z,3472
2019-05-11T14:26:03.000Z,3384
2019-05-11T14:27:14.000Z,3336
2019-05-11T14:28:27.000Z,3344
2019-05-11T14:29:39.000Z,3316
2019-05-11T14:30:52.474Z,3228
2019-05-11T14:32:04.688Z,3104
2019-05-11T14:33:16.000Z,2964
2019-05-11T14:34:28.000Z,2892
2019-05-11T14:35:41.315Z,2864
2019-05-11T14:36:52.000Z,2908
2019-05-11T14:38:04.000Z,3008
2019-05-11T14:39:16.000Z,3112
2019-05-11T14:40:29.000Z,3148
2019-05-11T14:41:42.000Z,3136
2019-05-11T14:42:54.000Z,3100
2019-05-11T14:44:06.000Z,3040
2019-05-11T14:45:17.000Z,2948
2019-05-11T14:46:31.183Z,2892
2019-05-11T14:47:42.000Z,2860
2019-05-11T14:48:54.000Z,2844
2019-05-11T14:50:06.000Z,2824
2019-05-11T14:51:18.000Z,2772
2019-05-11T14:52:31.000Z,2732
2019-05-11T14:53:44.421Z,2760
2019-05-11T14:54:55.000Z,2800
2019-05-11T14:56:08.000Z,2832
2019-05-11T14:57:20.000Z,2832
2019-05-11T14:58:32.000Z,2776
2019-05-11T14:59:45.478Z,2620
2019-05-11T15:00:57.680Z,2420
2019-05-11T15:02:08.000Z,2284
2019-05-11T15:03:21.000Z,2220
2019-05-11T15:04:34.300Z,2296
2019-05-11T15:05:46.513Z,2452
2019-05-11T15:06:57.000Z,2652
2019-05-11T15:08:09.000Z,2828
2019-05-11T15:09:22.000Z,2964
2019-05-11T15:10:35.034Z,3080
2019-05-11T15:11:46.000Z,3176
2019-05-11T15:12:58.000Z,3140
2019-05-11T15:14:11.998Z,3008
2019-05-11T15:16:36.382Z,3124
2019-05-11T15:17:48.602Z,3248
2019-05-11T15:18:59.000Z,3328
2019-05-11T15:20:12.000Z,3256
2019-05-11T15:21:25.212Z,3152
2019-05-11T15:22:36.000Z,3112
2019-05-11T15:23:48.000Z,3200
2019-05-11T15:25:01.831Z,3268
2019-05-11T15:26:13.000Z,3276
2019-05-11T15:27:25.000Z,3264
2019-05-11T15:28:38.466Z,3196
2019-05-11T15:29:49.000Z,3052
2019-05-11T15:31:01.000Z,2812
2019-05-11T15:32:14.000Z,2576
2019-05-11T15:33:26.000Z,2388
2019-05-11T15:34:38.000Z,2240
2019-05-11T15:35:50.000Z,2136
2019-05-11T15:37:03.089Z,2064
2019-05-11T15:38:15.000Z,1932
2019-05-11T15:39:27.000Z,1716
2019-05-11T15:40:40.751Z,1532
2019-05-11T15:41:51.000Z,1440
2019-05-11T15:43:04.000Z,1396
2019-05-11T15:44:16.000Z,1376
2019-05-11T15:45:28.000Z,1364
2019-05-11T15:46:41.568Z,1384
2019-05-11T15:47:53.000Z,1448
2019-05-11T15:49:04.000Z,1560
2019-05-11T15:50:18.000Z,1704
2019-05-11T15:51:30.395Z,1812
2019-05-11T15:52:41.000Z,1796
2019-05-11T15:53:53.000Z,1748
2019-05-11T15:55:06.000Z,1752
2019-05-11T15:56:18.000Z,1700
2019-05-11T15:57:30.000Z,1616
2019-05-11T15:58:43.658Z,1496
2019-05-11T15:59:54.000Z,1320
2019-05-11T16:01:07.000Z,1188
2019-05-11T16:02:19.000Z,1136
2019-05-11T16:03:31.000Z,1072
2019-05-11T16:04:43.000Z,948
2019-05-11T16:05:55.000Z,872
2019-05-11T16:07:08.000Z,868
2019-05-11T16:08:20.000Z,884
2019-05-11T16:09:33.514Z,920
2019-05-11T16:10:44.000Z,968
2019-05-11T16:11:56.000Z,992
2019-05-11T16:13:09.000Z,988
2019-05-11T16:14:22.425Z,1008
2019-05-11T16:15:34.000Z,1036
2019-05-11T16:16:46.762Z,1024
2019-05-11T16:17:57.000Z,964
2019-05-11T16:19:11.000Z,896
2019-05-11T16:20:22.000Z,844
2019-05-11T16:21:35.000Z,860
2019-05-11T16:22:47.793Z,868
2019-05-11T16:23:58.000Z,856
2019-05-11T16:25:11.000Z,836
2019-05-11T16:26:24.418Z,816
2019-05-11T16:27:35.000Z,812
2019-05-11T16:28:47.000Z,816
2019-05-11T16:30:01.034Z,804
2019-05-11T16:31:13.000Z,796
2019-05-11T16:32:24.000Z,836
2019-05-11T16:33:37.000Z,904
2019-05-11T16:34:48.000Z,984
2019-05-11T16:36:01.000Z,1080
2019-05-11T16:37:14.292Z,1192
2019-05-11T16:38:26.050Z,1344
2019-05-11T16:39:38.000Z,1512
2019-05-11T16:40:50.921Z,1668
2019-05-11T16:42:02.000Z,1748
2019-05-11T16:43:15.034Z,1804
2019-05-11T16:44:27.000Z,1804
2019-05-11T16:45:39.000Z,1780
2019-05-11T16:46:50.000Z,1756
2019-05-11T16:48:03.000Z,1676
2019-05-11T16:49:16.041Z,1648
2019-05-11T16:50:27.000Z,1724
2019-05-11T16:51:40.000Z,1888
2019-05-11T16:52:52.000Z,2032
2019-05-11T16:54:05.266Z,2124
2019-05-11T16:55:16.000Z,2136
2019-05-11T16:56:29.702Z,2056
2019-05-11T16:57:40.000Z,1912
2019-05-11T16:58:54.127Z,1712
2019-05-11T17:00:05.000Z,1516
2019-05-11T17:02:30.000Z,1340
2019-05-11T17:03:41.000Z,1348
2019-05-11T17:04:55.176Z,1352
2019-05-11T17:06:06.000Z,1336
2019-05-11T17:07:19.600Z,1328
2019-05-11T17:08:30.000Z,1324
2019-05-11T17:09:44.021Z,1324
2019-05-11T17:12:07.000Z,1284
2019-05-11T17:13:19.000Z,1240
2019-05-11T17:14:31.000Z,1176
2019-05-11T17:15:44.000Z,1100
2019-05-11T17:16:56.000Z,1012
2019-05-11T17:18:08.000Z,932
2019-05-11T17:19:20.000Z,876
2019-05-11T17:20:33.929Z,852
2019-05-11T17:21:46.140Z,844
2019-05-11T17:22:58.000Z,860
2019-05-11T17:24:09.000Z,888